sensor_id;sensor_type;location;lat;lon;timestamp;temperature;humidity
5258;DHT22;2651;51.594;9.928;2022-08-20T00:00:07;21.00;99.90
5258;DHT22;2651;51.594;9.928;2022-08-20T00:01:10;21.00;99.90
5258;DHT22;2651;51.594;9.928;2022-08-20T00:02:13;21.00;99.90
5258;DHT22;2651;51.594;9.928;2022-08-20T00:03:18;21.00;99.90
5258;DHT22;2651;51.594;9.928;2022-08-20T00:04:20;21.00;99.90
5258;DHT22;2651;51.594;9.928;2022-08-20T00:05:39;21.10;99.90
5258;DHT22;2651;51.594;9.928;2022-08-20T00:06:41;21.10;99.90
5258;DHT22;2651;51.594;9.928;2022-08-20T00:07:43;21.10;99.90
5258;DHT22;2651;51.594;9.928;2022-08-20T00:08:45;21.10;92.80
5258;DHT22;2651;51.594;9.928;2022-08-20T00:09:49;21.10;99.90
5258;DHT22;2651;51.594;9.928;2022-08-20T00:10:51;21.10;99.90
5258;DHT22;2651;51.594;9.928;2022-08-20T00:11:56;21.10;99.90
5258;DHT22;2651;51.594;9.928;2022-08-20T00:12:59;21.10;99.90
5258;DHT22;2651;51.594;9.928;2022-08-20T00:14:04;21.10;99.90
5258;DHT22;2651;51.594;9.928;2022-08-20T00:15:07;21.10;99.90
5258;DHT22;2651;51.594;9.928;2022-08-20T00:16:10;21.20;99.90
5258;DHT22;2651;51.594;9.928;2022-08-20T00:17:13;21.20;99.90
5258;DHT22;2651;51.594;9.928;2022-08-20T00:18:14;21.10;99.90
5258;DHT22;2651;51.594;9.928;2022-08-20T00:19:16;21.10;99.90
5258;DHT22;2651;51.594;9.928;2022-08-20T00:20:21;21.00;99.90
5258;DHT22;2651;51.594;9.928;2022-08-20T00:21:23;21.00;99.90
5258;DHT22;2651;51.594;9.928;2022-08-20T00:22:26;20.90;99.90
5258;DHT22;2651;51.594;9.928;2022-08-20T00:23:28;20.90;1.00
5258;DHT22;2651;51.594;9.928;2022-08-20T00:24:30;20.70;1.00
5258;DHT22;2651;51.594;9.928;2022-08-20T00:25:34;20.80;1.00
5258;DHT22;2651;51.594;9.928;2022-08-20T00:26:36;20.70;1.00
5258;DHT22;2651;51.594;9.928;2022-08-20T00:27:52;20.70;1.00
5258;DHT22;2651;51.594;9.928;2022-08-20T00:28:55;20.70;1.00
5258;DHT22;2651;51.594;9.928;2022-08-20T00:29:57;20.70;1.00
5258;DHT22;2651;51.594;9.928;2022-08-20T00:30:58;20.80;1.00
5258;DHT22;2651;51.594;9.928;2022-08-20T00:32:00;20.80;1.00
5258;DHT22;2651;51.594;9.928;2022-08-20T00:33:08;20.90;99.90
5258;DHT22;2651;51.594;9.928;2022-08-20T00:34:10;20.90;99.90
5258;DHT22;2651;51.594;9.928;2022-08-20T00:35:14;20.90;99.90
5258;DHT22;2651;51.594;9.928;2022-08-20T00:36:17;21.00;1.00
5258;DHT22;2651;51.594;9.928;2022-08-20T00:37:19;21.10;99.90
5258;DHT22;2651;51.594;9.928;2022-08-20T00:38:24;21.10;99.90
5258;DHT22;2651;51.594;9.928;2022-08-20T00:39:26;21.00;99.90
5258;DHT22;2651;51.594;9.928;2022-08-20T00:40:42;21.00;99.90
5258;DHT22;2651;51.594;9.928;2022-08-20T00:41:44;21.00;99.90
5258;DHT22;2651;51.594;9.928;2022-08-20T00:42:50;21.00;99.90
5258;DHT22;2651;51.594;9.928;2022-08-20T00:44:05;21.10;99.90
5258;DHT22;2651;51.594;9.928;2022-08-20T00:45:08;21.10;99.90
5258;DHT22;2651;51.594;9.928;2022-08-20T00:46:17;21.10;99.90
5258;DHT22;2651;51.594;9.928;2022-08-20T00:47:20;21.10;99.90
5258;DHT22;2651;51.594;9.928;2022-08-20T00:48:27;21.10;99.90
5258;DHT22;2651;51.594;9.928;2022-08-20T00:49:31;21.20;99.90
5258;DHT22;2651;51.594;9.928;2022-08-20T00:50:35;21.20;99.90
5258;DHT22;2651;51.594;9.928;2022-08-20T00:51:50;21.20;99.90
5258;DHT22;2651;51.594;9.928;2022-08-20T00:52:53;21.20;99.90
5258;DHT22;2651;51.594;9.928;2022-08-20T00:54:02;21.20;99.90
5258;DHT22;2651;51.594;9.928;2022-08-20T00:55:06;21.10;99.90
5258;DHT22;2651;51.594;9.928;2022-08-20T00:56:09;21.10;99.90
5258;DHT22;2651;51.594;9.928;2022-08-20T00:57:32;21.00;99.90
5258;DHT22;2651;51.594;9.928;2022-08-20T00:58:55;21.00;99.90
5258;DHT22;2651;51.594;9.928;2022-08-20T00:59:58;20.80;99.90
5258;DHT22;2651;51.594;9.928;2022-08-20T01:01:00;20.70;99.90
5258;DHT22;2651;51.594;9.928;2022-08-20T01:02:05;20.60;1.00
5258;DHT22;2651;51.594;9.928;2022-08-20T01:03:10;20.60;1.00
5258;DHT22;2651;51.594;9.928;2022-08-20T01:04:12;20.70;1.00
5258;DHT22;2651;51.594;9.928;2022-08-20T01:05:13;20.70;1.00
5258;DHT22;2651;51.594;9.928;2022-08-20T01:06:15;20.80;1.00
5258;DHT22;2651;51.594;9.928;2022-08-20T01:07:17;20.70;1.00
5258;DHT22;2651;51.594;9.928;2022-08-20T01:08:22;20.80;1.00
5258;DHT22;2651;51.594;9.928;2022-08-20T01:09:27;20.80;1.00
5258;DHT22;2651;51.594;9.928;2022-08-20T01:10:50;20.80;1.00
5258;DHT22;2651;51.594;9.928;2022-08-20T01:11:54;20.90;1.00
5258;DHT22;2651;51.594;9.928;2022-08-20T01:12:57;20.90;1.00
5258;DHT22;2651;51.594;9.928;2022-08-20T01:14:00;21.00;1.00
5258;DHT22;2651;51.594;9.928;2022-08-20T01:15:15;21.00;1.00
5258;DHT22;2651;51.594;9.928;2022-08-20T01:16:22;21.00;1.00
5258;DHT22;2651;51.594;9.928;2022-08-20T01:17:31;21.00;1.00
5258;DHT22;2651;51.594;9.928;2022-08-20T01:18:36;21.10;1.00
5258;DHT22;2651;51.594;9.928;2022-08-20T01:19:53;21.10;99.90
5258;DHT22;2651;51.594;9.928;2022-08-20T01:20:59;21.10;99.90
5258;DHT22;2651;51.594;9.928;2022-08-20T01:22:03;21.10;99.90
5258;DHT22;2651;51.594;9.928;2022-08-20T01:25:09;20.90;99.90
5258;DHT22;2651;51.594;9.928;2022-08-20T01:26:15;20.90;99.90
5258;DHT22;2651;51.594;9.928;2022-08-20T01:27:18;20.90;1.00
5258;DHT22;2651;51.594;9.928;2022-08-20T01:28:27;20.90;1.00
5258;DHT22;2651;51.594;9.928;2022-08-20T01:29:36;20.80;1.00
5258;DHT22;2651;51.594;9.928;2022-08-20T01:30:40;20.90;1.00
5258;DHT22;2651;51.594;9.928;2022-08-20T01:31:43;20.90;1.00
5258;DHT22;2651;51.594;9.928;2022-08-20T01:32:45;20.90;1.00
5258;DHT22;2651;51.594;9.928;2022-08-20T01:33:48;20.90;1.00
5258;DHT22;2651;51.594;9.928;2022-08-20T01:34:49;21.00;1.00
5258;DHT22;2651;51.594;9.928;2022-08-20T01:35:52;20.90;1.00
5258;DHT22;2651;51.594;9.928;2022-08-20T01:36:55;20.90;1.00
5258;DHT22;2651;51.594;9.928;2022-08-20T01:37:57;20.90;1.00
5258;DHT22;2651;51.594;9.928;2022-08-20T01:39:00;21.00;1.00
5258;DHT22;2651;51.594;9.928;2022-08-20T01:40:03;20.90;1.00
5258;DHT22;2651;51.594;9.928;2022-08-20T01:41:22;21.00;1.00
5258;DHT22;2651;51.594;9.928;2022-08-20T01:42:36;20.90;1.00
5258;DHT22;2651;51.594;9.928;2022-08-20T01:43:59;21.00;1.00
5258;DHT22;2651;51.594;9.928;2022-08-20T01:45:04;20.90;1.00
5258;DHT22;2651;51.594;9.928;2022-08-20T01:46:06;21.00;1.00
5258;DHT22;2651;51.594;9.928;2022-08-20T01:47:18;20.90;1.00
5258;DHT22;2651;51.594;9.928;2022-08-20T01:48:21;21.00;1.00
5258;DHT22;2651;51.594;9.928;2022-08-20T01:49:30;21.00;1.00
5258;DHT22;2651;51.594;9.928;2022-08-20T01:50:32;21.00;1.00
5258;DHT22;2651;51.594;9.928;2022-08-20T01:51:35;20.90;1.00
5258;DHT22;2651;51.594;9.928;2022-08-20T01:52:48;20.90;1.00
5258;DHT22;2651;51.594;9.928;2022-08-20T01:53:54;20.90;1.00
5258;DHT22;2651;51.594;9.928;2022-08-20T01:54:56;20.90;1.00
5258;DHT22;2651;51.594;9.928;2022-08-20T01:56:00;20.90;1.00
5258;DHT22;2651;51.594;9.928;2022-08-20T01:58:11;20.90;1.00
5258;DHT22;2651;51.594;9.928;2022-08-20T01:59:13;20.80;1.00
5258;DHT22;2651;51.594;9.928;2022-08-20T02:00:17;20.70;1.00
5258;DHT22;2651;51.594;9.928;2022-08-20T02:01:37;20.70;1.00
5258;DHT22;2651;51.594;9.928;2022-08-20T02:02:47;20.70;1.00
5258;DHT22;2651;51.594;9.928;2022-08-20T02:03:50;20.70;1.00
5258;DHT22;2651;51.594;9.928;2022-08-20T02:04:52;20.70;1.00
5258;DHT22;2651;51.594;9.928;2022-08-20T02:05:54;20.60;1.00
5258;DHT22;2651;51.594;9.928;2022-08-20T02:06:58;20.60;1.00
5258;DHT22;2651;51.594;9.928;2022-08-20T02:08:00;20.60;1.00
5258;DHT22;2651;51.594;9.928;2022-08-20T02:09:03;20.60;1.00
5258;DHT22;2651;51.594;9.928;2022-08-20T02:10:08;20.40;1.00
5258;DHT22;2651;51.594;9.928;2022-08-20T02:11:10;20.40;1.00
5258;DHT22;2651;51.594;9.928;2022-08-20T02:12:13;20.30;1.00
5258;DHT22;2651;51.594;9.928;2022-08-20T02:13:15;20.20;1.00
5258;DHT22;2651;51.594;9.928;2022-08-20T02:14:17;20.20;1.00
5258;DHT22;2651;51.594;9.928;2022-08-20T02:15:19;20.20;17.90
5258;DHT22;2651;51.594;9.928;2022-08-20T02:16:40;20.20;30.50
5258;DHT22;2651;51.594;9.928;2022-08-20T02:17:42;20.20;31.10
5258;DHT22;2651;51.594;9.928;2022-08-20T02:18:44;20.20;21.20
5258;DHT22;2651;51.594;9.928;2022-08-20T02:19:50;20.30;97.30
5258;DHT22;2651;51.594;9.928;2022-08-20T02:20:52;20.30;99.90
5258;DHT22;2651;51.594;9.928;2022-08-20T02:21:56;20.30;1.00
5258;DHT22;2651;51.594;9.928;2022-08-20T02:22:59;20.30;1.00
5258;DHT22;2651;51.594;9.928;2022-08-20T02:24:00;20.20;53.60
5258;DHT22;2651;51.594;9.928;2022-08-20T02:25:05;20.20;1.00
5258;DHT22;2651;51.594;9.928;2022-08-20T02:26:07;20.20;99.90
5258;DHT22;2651;51.594;9.928;2022-08-20T02:27:08;20.20;1.00
5258;DHT22;2651;51.594;9.928;2022-08-20T02:28:14;20.30;1.00
5258;DHT22;2651;51.594;9.928;2022-08-20T02:29:16;20.30;1.00
5258;DHT22;2651;51.594;9.928;2022-08-20T02:30:31;20.30;1.00
5258;DHT22;2651;51.594;9.928;2022-08-20T02:31:37;20.30;1.00
5258;DHT22;2651;51.594;9.928;2022-08-20T02:33:05;20.30;1.00
5258;DHT22;2651;51.594;9.928;2022-08-20T02:34:08;20.40;1.00
5258;DHT22;2651;51.594;9.928;2022-08-20T02:35:24;20.50;1.00
5258;DHT22;2651;51.594;9.928;2022-08-20T02:36:26;20.50;1.00
5258;DHT22;2651;51.594;9.928;2022-08-20T02:37:28;20.50;1.00
5258;DHT22;2651;51.594;9.928;2022-08-20T02:38:29;20.60;99.90
5258;DHT22;2651;51.594;9.928;2022-08-20T02:39:32;20.60;1.00
5258;DHT22;2651;51.594;9.928;2022-08-20T02:40:34;20.60;1.00
5258;DHT22;2651;51.594;9.928;2022-08-20T02:41:37;20.60;1.00
5258;DHT22;2651;51.594;9.928;2022-08-20T02:42:39;20.60;99.90
5258;DHT22;2651;51.594;9.928;2022-08-20T02:43:44;20.60;1.00
5258;DHT22;2651;51.594;9.928;2022-08-20T02:44:46;20.70;1.00
5258;DHT22;2651;51.594;9.928;2022-08-20T02:45:48;20.70;1.00
5258;DHT22;2651;51.594;9.928;2022-08-20T02:46:49;20.70;1.00
5258;DHT22;2651;51.594;9.928;2022-08-20T02:47:51;20.60;1.00
5258;DHT22;2651;51.594;9.928;2022-08-20T02:48:56;20.60;1.00
5258;DHT22;2651;51.594;9.928;2022-08-20T02:49:58;20.70;1.00
5258;DHT22;2651;51.594;9.928;2022-08-20T02:51:03;20.70;1.00
5258;DHT22;2651;51.594;9.928;2022-08-20T02:52:05;20.70;99.90
5258;DHT22;2651;51.594;9.928;2022-08-20T02:53:07;20.70;1.00
5258;DHT22;2651;51.594;9.928;2022-08-20T02:54:09;20.70;1.00
5258;DHT22;2651;51.594;9.928;2022-08-20T02:55:12;20.80;1.00
5258;DHT22;2651;51.594;9.928;2022-08-20T02:56:28;20.70;1.00
5258;DHT22;2651;51.594;9.928;2022-08-20T02:57:30;20.80;1.00
5258;DHT22;2651;51.594;9.928;2022-08-20T02:58:32;20.80;1.00
5258;DHT22;2651;51.594;9.928;2022-08-20T02:59:34;20.80;1.00
5258;DHT22;2651;51.594;9.928;2022-08-20T03:00:35;20.80;1.00
5258;DHT22;2651;51.594;9.928;2022-08-20T03:01:39;20.80;1.00
5258;DHT22;2651;51.594;9.928;2022-08-20T03:02:41;20.80;1.00
5258;DHT22;2651;51.594;9.928;2022-08-20T03:03:43;20.80;1.00
5258;DHT22;2651;51.594;9.928;2022-08-20T03:04:45;20.80;1.00
5258;DHT22;2651;51.594;9.928;2022-08-20T03:05:50;20.80;1.00
5258;DHT22;2651;51.594;9.928;2022-08-20T03:06:51;20.70;1.00
5258;DHT22;2651;51.594;9.928;2022-08-20T03:07:54;20.80;1.00
5258;DHT22;2651;51.594;9.928;2022-08-20T03:08:59;20.80;1.00
5258;DHT22;2651;51.594;9.928;2022-08-20T03:10:01;20.80;1.00
5258;DHT22;2651;51.594;9.928;2022-08-20T03:11:04;20.80;1.00
5258;DHT22;2651;51.594;9.928;2022-08-20T03:12:06;20.80;1.00
5258;DHT22;2651;51.594;9.928;2022-08-20T03:13:09;20.90;1.00
5258;DHT22;2651;51.594;9.928;2022-08-20T03:14:12;20.90;1.00
5258;DHT22;2651;51.594;9.928;2022-08-20T03:15:14;20.90;1.00
5258;DHT22;2651;51.594;9.928;2022-08-20T03:16:18;20.90;1.00
5258;DHT22;2651;51.594;9.928;2022-08-20T03:17:20;20.90;1.00
5258;DHT22;2651;51.594;9.928;2022-08-20T03:18:23;20.90;99.90
5258;DHT22;2651;51.594;9.928;2022-08-20T03:19:26;20.90;99.90
5258;DHT22;2651;51.594;9.928;2022-08-20T03:20:28;20.90;1.00
5258;DHT22;2651;51.594;9.928;2022-08-20T03:21:30;20.80;1.00
5258;DHT22;2651;51.594;9.928;2022-08-20T03:22:33;20.80;1.00
5258;DHT22;2651;51.594;9.928;2022-08-20T03:23:36;20.70;1.00
5258;DHT22;2651;51.594;9.928;2022-08-20T03:24:40;20.70;1.00
5258;DHT22;2651;51.594;9.928;2022-08-20T03:25:42;20.80;1.00
5258;DHT22;2651;51.594;9.928;2022-08-20T03:26:44;20.80;1.00
5258;DHT22;2651;51.594;9.928;2022-08-20T03:27:46;20.80;1.00
5258;DHT22;2651;51.594;9.928;2022-08-20T03:28:55;20.80;1.00
5258;DHT22;2651;51.594;9.928;2022-08-20T03:29:56;20.80;1.00
5258;DHT22;2651;51.594;9.928;2022-08-20T03:30:58;20.80;1.00
5258;DHT22;2651;51.594;9.928;2022-08-20T03:32:00;20.90;1.00
5258;DHT22;2651;51.594;9.928;2022-08-20T03:33:08;20.90;1.00
5258;DHT22;2651;51.594;9.928;2022-08-20T03:34:10;20.90;1.00
5258;DHT22;2651;51.594;9.928;2022-08-20T03:35:14;20.90;1.00
5258;DHT22;2651;51.594;9.928;2022-08-20T03:36:16;20.90;1.00
5258;DHT22;2651;51.594;9.928;2022-08-20T03:37:33;20.90;1.00
5258;DHT22;2651;51.594;9.928;2022-08-20T03:38:35;20.80;1.00
5258;DHT22;2651;51.594;9.928;2022-08-20T03:39:38;20.80;99.90
5258;DHT22;2651;51.594;9.928;2022-08-20T03:40:40;20.80;1.00
5258;DHT22;2651;51.594;9.928;2022-08-20T03:41:42;20.80;1.00
5258;DHT22;2651;51.594;9.928;2022-08-20T03:42:44;20.80;99.90
5258;DHT22;2651;51.594;9.928;2022-08-20T03:43:46;20.80;1.00
5258;DHT22;2651;51.594;9.928;2022-08-20T03:44:47;20.90;99.90
5258;DHT22;2651;51.594;9.928;2022-08-20T03:45:59;20.80;99.90
5258;DHT22;2651;51.594;9.928;2022-08-20T03:47:03;20.80;1.00
5258;DHT22;2651;51.594;9.928;2022-08-20T03:48:11;20.90;1.00
5258;DHT22;2651;51.594;9.928;2022-08-20T03:49:13;20.90;1.00
5258;DHT22;2651;51.594;9.928;2022-08-20T03:50:17;20.90;1.00
5258;DHT22;2651;51.594;9.928;2022-08-20T03:51:24;20.90;1.00
5258;DHT22;2651;51.594;9.928;2022-08-20T03:52:26;20.80;1.00
5258;DHT22;2651;51.594;9.928;2022-08-20T03:53:29;20.90;1.00
5258;DHT22;2651;51.594;9.928;2022-08-20T03:54:32;20.80;1.00
5258;DHT22;2651;51.594;9.928;2022-08-20T03:55:34;20.80;1.00
5258;DHT22;2651;51.594;9.928;2022-08-20T03:56:35;20.80;1.00
5258;DHT22;2651;51.594;9.928;2022-08-20T03:57:46;20.80;1.00
5258;DHT22;2651;51.594;9.928;2022-08-20T03:58:48;20.70;1.00
5258;DHT22;2651;51.594;9.928;2022-08-20T03:59:50;20.60;1.00
5258;DHT22;2651;51.594;9.928;2022-08-20T04:00:59;20.60;1.00
5258;DHT22;2651;51.594;9.928;2022-08-20T04:02:01;20.70;1.00
5258;DHT22;2651;51.594;9.928;2022-08-20T04:03:03;20.70;1.00
5258;DHT22;2651;51.594;9.928;2022-08-20T04:04:06;20.70;1.00
5258;DHT22;2651;51.594;9.928;2022-08-20T04:05:13;20.60;1.00
5258;DHT22;2651;51.594;9.928;2022-08-20T04:06:15;20.70;1.00
5258;DHT22;2651;51.594;9.928;2022-08-20T04:07:21;20.70;1.00
5258;DHT22;2651;51.594;9.928;2022-08-20T04:08:28;20.70;1.00
5258;DHT22;2651;51.594;9.928;2022-08-20T04:09:30;20.60;1.00
5258;DHT22;2651;51.594;9.928;2022-08-20T04:10:31;20.60;1.00
5258;DHT22;2651;51.594;9.928;2022-08-20T04:11:33;20.60;1.00
5258;DHT22;2651;51.594;9.928;2022-08-20T04:12:36;20.60;1.00
5258;DHT22;2651;51.594;9.928;2022-08-20T04:13:49;20.70;1.00
5258;DHT22;2651;51.594;9.928;2022-08-20T04:14:51;20.60;1.00
5258;DHT22;2651;51.594;9.928;2022-08-20T04:15:53;20.70;1.00
5258;DHT22;2651;51.594;9.928;2022-08-20T04:16:58;20.60;1.00
5258;DHT22;2651;51.594;9.928;2022-08-20T04:18:06;20.60;1.00
5258;DHT22;2651;51.594;9.928;2022-08-20T04:19:08;20.60;1.00
5258;DHT22;2651;51.594;9.928;2022-08-20T04:20:12;20.60;1.00
5258;DHT22;2651;51.594;9.928;2022-08-20T04:21:14;20.60;1.00
5258;DHT22;2651;51.594;9.928;2022-08-20T04:22:16;20.60;1.00
5258;DHT22;2651;51.594;9.928;2022-08-20T04:23:18;20.60;1.00
5258;DHT22;2651;51.594;9.928;2022-08-20T04:24:21;20.60;1.00
5258;DHT22;2651;51.594;9.928;2022-08-20T04:25:35;20.50;1.00
5258;DHT22;2651;51.594;9.928;2022-08-20T04:26:43;20.50;1.00
5258;DHT22;2651;51.594;9.928;2022-08-20T04:27:45;20.50;1.00
5258;DHT22;2651;51.594;9.928;2022-08-20T04:28:47;20.50;1.00
5258;DHT22;2651;51.594;9.928;2022-08-20T04:29:48;20.50;1.00
5258;DHT22;2651;51.594;9.928;2022-08-20T04:30:50;20.50;1.00
5258;DHT22;2651;51.594;9.928;2022-08-20T04:31:53;20.50;1.00
5258;DHT22;2651;51.594;9.928;2022-08-20T04:32:55;20.50;1.00
5258;DHT22;2651;51.594;9.928;2022-08-20T04:33:57;20.50;1.00
5258;DHT22;2651;51.594;9.928;2022-08-20T04:34:59;20.50;1.00
5258;DHT22;2651;51.594;9.928;2022-08-20T04:36:02;20.60;1.00
5258;DHT22;2651;51.594;9.928;2022-08-20T04:37:06;20.60;1.00
5258;DHT22;2651;51.594;9.928;2022-08-20T04:38:18;20.60;1.00
5258;DHT22;2651;51.594;9.928;2022-08-20T04:39:20;20.60;1.00
5258;DHT22;2651;51.594;9.928;2022-08-20T04:40:22;20.70;1.00
5258;DHT22;2651;51.594;9.928;2022-08-20T04:41:43;20.70;1.00
5258;DHT22;2651;51.594;9.928;2022-08-20T04:42:45;20.70;1.00
5258;DHT22;2651;51.594;9.928;2022-08-20T04:43:55;20.70;1.00
5258;DHT22;2651;51.594;9.928;2022-08-20T04:44:56;20.80;1.00
5258;DHT22;2651;51.594;9.928;2022-08-20T04:46:04;20.80;1.00
5258;DHT22;2651;51.594;9.928;2022-08-20T04:47:06;20.80;1.00
5258;DHT22;2651;51.594;9.928;2022-08-20T04:48:08;20.80;1.00
5258;DHT22;2651;51.594;9.928;2022-08-20T04:49:15;20.80;1.00
5258;DHT22;2651;51.594;9.928;2022-08-20T04:50:18;20.80;1.00
5258;DHT22;2651;51.594;9.928;2022-08-20T04:51:20;20.80;1.00
5258;DHT22;2651;51.594;9.928;2022-08-20T04:52:26;20.80;1.00
5258;DHT22;2651;51.594;9.928;2022-08-20T04:53:28;20.90;1.00
5258;DHT22;2651;51.594;9.928;2022-08-20T04:54:30;20.90;1.00
5258;DHT22;2651;51.594;9.928;2022-08-20T04:55:33;20.90;1.00
5258;DHT22;2651;51.594;9.928;2022-08-20T04:56:34;20.90;1.00
5258;DHT22;2651;51.594;9.928;2022-08-20T04:57:39;20.90;1.00
5258;DHT22;2651;51.594;9.928;2022-08-20T04:58:41;20.90;1.00
5258;DHT22;2651;51.594;9.928;2022-08-20T04:59:49;20.90;1.00
5258;DHT22;2651;51.594;9.928;2022-08-20T05:00:54;20.90;1.00
5258;DHT22;2651;51.594;9.928;2022-08-20T05:02:01;21.00;1.00
5258;DHT22;2651;51.594;9.928;2022-08-20T05:03:04;21.00;1.00
5258;DHT22;2651;51.594;9.928;2022-08-20T05:04:07;21.00;1.00
5258;DHT22;2651;51.594;9.928;2022-08-20T05:05:09;21.00;1.00
5258;DHT22;2651;51.594;9.928;2022-08-20T05:06:11;21.00;1.00
5258;DHT22;2651;51.594;9.928;2022-08-20T05:07:15;20.90;1.00
5258;DHT22;2651;51.594;9.928;2022-08-20T05:08:20;20.90;1.00
5258;DHT22;2651;51.594;9.928;2022-08-20T05:09:23;20.90;1.00
5258;DHT22;2651;51.594;9.928;2022-08-20T05:10:25;21.00;1.00
5258;DHT22;2651;51.594;9.928;2022-08-20T05:11:28;21.00;1.00
5258;DHT22;2651;51.594;9.928;2022-08-20T05:12:39;20.90;1.00
5258;DHT22;2651;51.594;9.928;2022-08-20T05:13:41;20.90;1.00
5258;DHT22;2651;51.594;9.928;2022-08-20T05:14:43;20.90;1.00
5258;DHT22;2651;51.594;9.928;2022-08-20T05:15:45;20.90;1.00
5258;DHT22;2651;51.594;9.928;2022-08-20T05:16:48;20.90;1.00
5258;DHT22;2651;51.594;9.928;2022-08-20T05:17:57;21.00;1.00
5258;DHT22;2651;51.594;9.928;2022-08-20T05:19:04;21.00;1.00
5258;DHT22;2651;51.594;9.928;2022-08-20T05:20:10;21.00;1.00
5258;DHT22;2651;51.594;9.928;2022-08-20T05:21:12;21.00;1.00
5258;DHT22;2651;51.594;9.928;2022-08-20T05:22:16;21.10;1.00
5258;DHT22;2651;51.594;9.928;2022-08-20T05:23:19;21.10;1.00
5258;DHT22;2651;51.594;9.928;2022-08-20T05:24:21;21.00;1.00
5258;DHT22;2651;51.594;9.928;2022-08-20T05:25:23;21.00;1.00
5258;DHT22;2651;51.594;9.928;2022-08-20T05:26:24;20.90;1.00
5258;DHT22;2651;51.594;9.928;2022-08-20T05:27:28;20.80;1.00
5258;DHT22;2651;51.594;9.928;2022-08-20T05:28:30;20.80;1.00
5258;DHT22;2651;51.594;9.928;2022-08-20T05:29:37;20.80;1.00
5258;DHT22;2651;51.594;9.928;2022-08-20T05:30:41;20.80;1.00
5258;DHT22;2651;51.594;9.928;2022-08-20T05:31:43;20.90;1.00
5258;DHT22;2651;51.594;9.928;2022-08-20T05:32:45;20.90;1.00
5258;DHT22;2651;51.594;9.928;2022-08-20T05:33:47;20.90;1.00
5258;DHT22;2651;51.594;9.928;2022-08-20T05:34:51;21.00;1.00
5258;DHT22;2651;51.594;9.928;2022-08-20T05:35:53;21.00;1.00
5258;DHT22;2651;51.594;9.928;2022-08-20T05:36:56;21.10;1.00
5258;DHT22;2651;51.594;9.928;2022-08-20T05:37:57;21.10;1.00
5258;DHT22;2651;51.594;9.928;2022-08-20T05:38:59;21.10;1.00
5258;DHT22;2651;51.594;9.928;2022-08-20T05:40:00;21.10;1.00
5258;DHT22;2651;51.594;9.928;2022-08-20T05:41:03;21.20;1.00
5258;DHT22;2651;51.594;9.928;2022-08-20T05:42:05;21.20;1.00
5258;DHT22;2651;51.594;9.928;2022-08-20T05:43:07;21.20;1.00
5258;DHT22;2651;51.594;9.928;2022-08-20T05:44:10;21.20;1.00
5258;DHT22;2651;51.594;9.928;2022-08-20T05:45:14;21.20;1.00
5258;DHT22;2651;51.594;9.928;2022-08-20T05:46:17;21.20;1.00
5258;DHT22;2651;51.594;9.928;2022-08-20T05:47:19;21.20;1.00
5258;DHT22;2651;51.594;9.928;2022-08-20T05:48:28;21.20;1.00
5258;DHT22;2651;51.594;9.928;2022-08-20T05:49:30;21.10;1.00
5258;DHT22;2651;51.594;9.928;2022-08-20T05:50:33;21.10;1.00
5258;DHT22;2651;51.594;9.928;2022-08-20T05:51:36;21.10;1.00
5258;DHT22;2651;51.594;9.928;2022-08-20T05:52:39;21.10;1.00
5258;DHT22;2651;51.594;9.928;2022-08-20T05:53:40;21.20;1.00
5258;DHT22;2651;51.594;9.928;2022-08-20T05:54:42;21.20;1.00
5258;DHT22;2651;51.594;9.928;2022-08-20T05:55:44;21.20;1.00
5258;DHT22;2651;51.594;9.928;2022-08-20T05:56:46;21.20;1.00
5258;DHT22;2651;51.594;9.928;2022-08-20T05:57:47;21.10;1.00
5258;DHT22;2651;51.594;9.928;2022-08-20T05:58:49;21.10;1.00
5258;DHT22;2651;51.594;9.928;2022-08-20T05:59:52;21.10;1.00
5258;DHT22;2651;51.594;9.928;2022-08-20T06:00:54;21.10;1.00
5258;DHT22;2651;51.594;9.928;2022-08-20T06:01:56;21.10;1.00
5258;DHT22;2651;51.594;9.928;2022-08-20T06:02:58;21.20;1.00
5258;DHT22;2651;51.594;9.928;2022-08-20T06:04:18;21.20;1.00
5258;DHT22;2651;51.594;9.928;2022-08-20T06:05:27;21.20;1.00
5258;DHT22;2651;51.594;9.928;2022-08-20T06:06:29;21.20;1.00
5258;DHT22;2651;51.594;9.928;2022-08-20T06:07:47;21.20;1.00
5258;DHT22;2651;51.594;9.928;2022-08-20T06:08:51;21.20;1.00
5258;DHT22;2651;51.594;9.928;2022-08-20T06:09:52;21.30;1.00
5258;DHT22;2651;51.594;9.928;2022-08-20T06:10:55;21.30;1.00
5258;DHT22;2651;51.594;9.928;2022-08-20T06:11:57;21.30;1.00
5258;DHT22;2651;51.594;9.928;2022-08-20T06:13:00;21.40;1.00
5258;DHT22;2651;51.594;9.928;2022-08-20T06:14:03;21.40;1.00
5258;DHT22;2651;51.594;9.928;2022-08-20T06:15:06;21.40;1.00
5258;DHT22;2651;51.594;9.928;2022-08-20T06:16:09;21.40;1.00
5258;DHT22;2651;51.594;9.928;2022-08-20T06:17:15;21.50;1.00
5258;DHT22;2651;51.594;9.928;2022-08-20T06:18:17;21.50;1.00
5258;DHT22;2651;51.594;9.928;2022-08-20T06:19:29;21.50;1.00
5258;DHT22;2651;51.594;9.928;2022-08-20T06:20:37;21.50;1.00
5258;DHT22;2651;51.594;9.928;2022-08-20T06:21:39;21.50;1.00
5258;DHT22;2651;51.594;9.928;2022-08-20T06:22:40;21.50;1.00
5258;DHT22;2651;51.594;9.928;2022-08-20T06:23:42;21.60;1.00
5258;DHT22;2651;51.594;9.928;2022-08-20T06:25:01;21.50;1.00
5258;DHT22;2651;51.594;9.928;2022-08-20T06:26:03;21.60;1.00
5258;DHT22;2651;51.594;9.928;2022-08-20T06:27:13;21.60;1.00
5258;DHT22;2651;51.594;9.928;2022-08-20T06:28:15;21.60;1.00
5258;DHT22;2651;51.594;9.928;2022-08-20T06:29:17;21.60;1.00
5258;DHT22;2651;51.594;9.928;2022-08-20T06:30:19;21.60;1.00
5258;DHT22;2651;51.594;9.928;2022-08-20T06:31:21;21.70;1.00
5258;DHT22;2651;51.594;9.928;2022-08-20T06:32:23;21.70;1.00
5258;DHT22;2651;51.594;9.928;2022-08-20T06:33:32;21.70;1.00
5258;DHT22;2651;51.594;9.928;2022-08-20T06:34:34;21.60;1.00
5258;DHT22;2651;51.594;9.928;2022-08-20T06:35:37;21.60;1.00
5258;DHT22;2651;51.594;9.928;2022-08-20T06:36:38;21.60;1.00
5258;DHT22;2651;51.594;9.928;2022-08-20T06:37:40;21.60;1.00
5258;DHT22;2651;51.594;9.928;2022-08-20T06:38:43;21.50;1.00
5258;DHT22;2651;51.594;9.928;2022-08-20T06:39:46;21.50;1.00
5258;DHT22;2651;51.594;9.928;2022-08-20T06:40:48;21.50;1.00
5258;DHT22;2651;51.594;9.928;2022-08-20T06:41:49;21.50;44.50
5258;DHT22;2651;51.594;9.928;2022-08-20T06:42:54;21.50;16.40
5258;DHT22;2651;51.594;9.928;2022-08-20T06:43:56;21.50;25.10
5258;DHT22;2651;51.594;9.928;2022-08-20T06:44:58;21.40;1.00
5258;DHT22;2651;51.594;9.928;2022-08-20T06:46:00;21.50;33.90
5258;DHT22;2651;51.594;9.928;2022-08-20T06:47:04;21.40;1.00
5258;DHT22;2651;51.594;9.928;2022-08-20T06:48:09;21.40;40.10
5258;DHT22;2651;51.594;9.928;2022-08-20T06:49:15;21.40;57.10
5258;DHT22;2651;51.594;9.928;2022-08-20T06:50:22;21.40;99.90
5258;DHT22;2651;51.594;9.928;2022-08-20T06:51:24;21.40;96.30
5258;DHT22;2651;51.594;9.928;2022-08-20T06:52:26;21.40;99.90
5258;DHT22;2651;51.594;9.928;2022-08-20T06:53:48;21.40;99.90
5258;DHT22;2651;51.594;9.928;2022-08-20T06:54:49;21.40;99.90
5258;DHT22;2651;51.594;9.928;2022-08-20T06:55:53;21.40;99.90
5258;DHT22;2651;51.594;9.928;2022-08-20T06:56:55;21.40;99.90
5258;DHT22;2651;51.594;9.928;2022-08-20T06:57:59;21.30;99.90
5258;DHT22;2651;51.594;9.928;2022-08-20T06:59:01;21.30;99.90
5258;DHT22;2651;51.594;9.928;2022-08-20T07:00:10;21.30;99.90
5258;DHT22;2651;51.594;9.928;2022-08-20T07:01:12;21.10;99.90
5258;DHT22;2651;51.594;9.928;2022-08-20T07:02:15;21.00;99.90
5258;DHT22;2651;51.594;9.928;2022-08-20T07:03:17;21.00;99.90
5258;DHT22;2651;51.594;9.928;2022-08-20T07:04:19;21.00;99.90
5258;DHT22;2651;51.594;9.928;2022-08-20T07:05:20;21.00;99.90
5258;DHT22;2651;51.594;9.928;2022-08-20T07:06:23;20.90;99.90
5258;DHT22;2651;51.594;9.928;2022-08-20T07:07:26;21.00;99.90
5258;DHT22;2651;51.594;9.928;2022-08-20T07:08:28;21.00;99.90